CCA1897 ZBAA-ZSLG
Flight info
| Callsign | CCA1897 |
|---|---|
| Flight time | 0h 57m |
| Altitude | 37100 |
| Route | ELKUR5Y ELKUR W40 YQG/K0822S1100 W142 DALIM/K0819S1130 A593 SAGIP W529 RUXEL RUX91A |
| Aircraft | A320/M-SDE3FGHIRWY/LB1 |
Departure
| Time | 2026-05-06 11:45 |
|---|---|
| Airport | Beijing Capital International Airport (ZBAA) |
Arrival
| Time | 2026-05-06 12:43 |
|---|---|
| Airport | Lianyungang Huaguoshan International Airport (ZSLG) |
| Time | Latitude | Longitude | Altitude | Speed | Heading |
|---|---|---|---|---|---|
| 2026-05-06 11:29 | 40.07010 | 116.60540 | 124 ft | 0 kts | 83° |
| 2026-05-06 11:35 | 40.07010 | 116.60539 | 119 ft | 1 kts | 83° |
| 2026-05-06 11:35 | 40.07008 | 116.60507 | 122 ft | 4 kts | 86° |
| 2026-05-06 11:35 | 40.07007 | 116.60472 | 121 ft | 4 kts | 91° |
| 2026-05-06 11:36 | 40.07009 | 116.60437 | 121 ft | 4 kts | 102° |
| 2026-05-06 11:36 | 40.07017 | 116.60407 | 120 ft | 4 kts | 139° |
| 2026-05-06 11:36 | 40.07026 | 116.60399 | 119 ft | 0 kts | 173° |
| 2026-05-06 11:38 | 40.07023 | 116.60400 | 124 ft | 3 kts | 173° |
| 2026-05-06 11:39 | 40.06975 | 116.60407 | 120 ft | 10 kts | 173° |
| 2026-05-06 11:39 | 40.06904 | 116.60418 | 119 ft | 10 kts | 176° |
| 2026-05-06 11:39 | 40.06880 | 116.60356 | 123 ft | 8 kts | 261° |
| 2026-05-06 11:39 | 40.06874 | 116.60294 | 122 ft | 6 kts | 262° |
| 2026-05-06 11:40 | 40.06868 | 116.60242 | 120 ft | 5 kts | 263° |
| 2026-05-06 11:40 | 40.06861 | 116.60166 | 124 ft | 13 kts | 263° |
| 2026-05-06 11:40 | 40.06878 | 116.60050 | 123 ft | 13 kts | 334° |
| 2026-05-06 11:40 | 40.06961 | 116.60030 | 122 ft | 13 kts | 353° |
| 2026-05-06 11:41 | 40.07086 | 116.60011 | 122 ft | 23 kts | 353° |
| 2026-05-06 11:41 | 40.07263 | 116.59984 | 122 ft | 27 kts | 353° |
| 2026-05-06 11:41 | 40.07454 | 116.59956 | 124 ft | 26 kts | 353° |
| 2026-05-06 11:41 | 40.07619 | 116.59932 | 121 ft | 25 kts | 354° |
| 2026-05-06 11:42 | 40.07794 | 116.59904 | 121 ft | 26 kts | 352° |
| 2026-05-06 11:42 | 40.07970 | 116.59873 | 122 ft | 25 kts | 353° |
| 2026-05-06 11:42 | 40.08150 | 116.59844 | 122 ft | 27 kts | 353° |
| 2026-05-06 11:42 | 40.08340 | 116.59815 | 121 ft | 28 kts | 353° |
| 2026-05-06 11:43 | 40.08535 | 116.59787 | 120 ft | 26 kts | 354° |
| 2026-05-06 11:43 | 40.08713 | 116.59761 | 122 ft | 23 kts | 353° |
| 2026-05-06 11:43 | 40.08850 | 116.59740 | 123 ft | 17 kts | 353° |
| 2026-05-06 11:44 | 40.08964 | 116.59620 | 122 ft | 11 kts | 256° |
| 2026-05-06 11:44 | 40.08944 | 116.59532 | 122 ft | 9 kts | 243° |
| 2026-05-06 11:44 | 40.08895 | 116.59492 | 122 ft | 8 kts | 193° |
| 2026-05-06 11:44 | 40.08847 | 116.59499 | 120 ft | 9 kts | 173° |
| 2026-05-06 11:45 | 40.08588 | 116.59540 | 124 ft | 74 kts | 173° |
| 2026-05-06 11:45 | 40.07863 | 116.59655 | 124 ft | 134 kts | 173° |
| 2026-05-06 11:45 | 40.06812 | 116.59818 | 391 ft | 153 kts | 172° |
| 2026-05-06 11:45 | 40.05732 | 116.59985 | 938 ft | 158 kts | 171° |
| 2026-05-06 11:46 | 40.04633 | 116.60159 | 1587 ft | 160 kts | 171° |
| 2026-05-06 11:46 | 40.03527 | 116.60335 | 2133 ft | 170 kts | 171° |
| 2026-05-06 11:46 | 40.02273 | 116.60534 | 2490 ft | 193 kts | 172° |
| 2026-05-06 11:46 | 40.00858 | 116.60712 | 2836 ft | 216 kts | 176° |
| 2026-05-06 11:47 | 39.99295 | 116.60803 | 3268 ft | 235 kts | 179° |
| 2026-05-06 11:47 | 39.97572 | 116.60868 | 3659 ft | 260 kts | 180° |
| 2026-05-06 11:47 | 39.95711 | 116.60932 | 4268 ft | 273 kts | 180° |
| 2026-05-06 11:47 | 39.93788 | 116.61001 | 5094 ft | 280 kts | 180° |
| 2026-05-06 11:48 | 39.91816 | 116.61076 | 5887 ft | 287 kts | 180° |
| 2026-05-06 11:48 | 39.89796 | 116.61154 | 6665 ft | 294 kts | 181° |
| 2026-05-06 11:48 | 39.87739 | 116.61237 | 7478 ft | 298 kts | 180° |
| 2026-05-06 11:48 | 39.85656 | 116.61323 | 8316 ft | 301 kts | 180° |
| 2026-05-06 11:49 | 39.83545 | 116.61414 | 9153 ft | 305 kts | 181° |
| 2026-05-06 11:49 | 39.81408 | 116.61509 | 9974 ft | 309 kts | 181° |
| 2026-05-06 11:49 | 39.79285 | 116.61602 | 10410 ft | 326 kts | 181° |
| 2026-05-06 11:49 | 39.76938 | 116.61700 | 10710 ft | 346 kts | 181° |
| 2026-05-06 11:50 | 39.74506 | 116.61802 | 11345 ft | 353 kts | 181° |
| 2026-05-06 11:50 | 39.72045 | 116.61908 | 12122 ft | 355 kts | 182° |
| 2026-05-06 11:50 | 39.69574 | 116.62017 | 12936 ft | 356 kts | 183° |
| 2026-05-06 11:50 | 39.67092 | 116.62128 | 13733 ft | 358 kts | 183° |
| 2026-05-06 11:51 | 39.64630 | 116.62238 | 14428 ft | 359 kts | 184° |
| 2026-05-06 11:51 | 39.62208 | 116.62346 | 15127 ft | 360 kts | 184° |
| 2026-05-06 11:51 | 39.59704 | 116.62456 | 15843 ft | 360 kts | 185° |
| 2026-05-06 11:51 | 39.57198 | 116.62563 | 16558 ft | 361 kts | 185° |
| 2026-05-06 11:52 | 39.54678 | 116.62669 | 17272 ft | 361 kts | 185° |
| 2026-05-06 11:52 | 39.52161 | 116.62774 | 17978 ft | 362 kts | 186° |
| 2026-05-06 11:52 | 39.49639 | 116.62878 | 18595 ft | 364 kts | 186° |
| 2026-05-06 11:52 | 39.47100 | 116.62985 | 19154 ft | 366 kts | 186° |
| 2026-05-06 11:53 | 39.45406 | 116.63056 | 19511 ft | 368 kts | 186° |
| 2026-05-06 11:53 | 39.41944 | 116.63204 | 19988 ft | 381 kts | 186° |
| 2026-05-06 11:53 | 39.40168 | 116.63275 | 20070 ft | 391 kts | 185° |
| 2026-05-06 11:53 | 39.37401 | 116.63385 | 20193 ft | 404 kts | 185° |
| 2026-05-06 11:54 | 39.34559 | 116.63499 | 20499 ft | 412 kts | 185° |
| 2026-05-06 11:54 | 39.31682 | 116.63622 | 20905 ft | 416 kts | 185° |
| 2026-05-06 11:54 | 39.28783 | 116.63753 | 21323 ft | 419 kts | 185° |
| 2026-05-06 11:54 | 39.25863 | 116.63887 | 21734 ft | 422 kts | 185° |
| 2026-05-06 11:55 | 39.22920 | 116.64019 | 22131 ft | 425 kts | 185° |
| 2026-05-06 11:55 | 39.19954 | 116.64147 | 22528 ft | 428 kts | 185° |
| 2026-05-06 11:55 | 39.16971 | 116.64271 | 22905 ft | 430 kts | 185° |
| 2026-05-06 11:55 | 39.13971 | 116.64396 | 23283 ft | 433 kts | 185° |
| 2026-05-06 11:56 | 39.10951 | 116.64526 | 23612 ft | 436 kts | 185° |
| 2026-05-06 11:56 | 39.07914 | 116.64658 | 23935 ft | 437 kts | 185° |
| 2026-05-06 11:56 | 39.04869 | 116.64785 | 24272 ft | 438 kts | 185° |
| 2026-05-06 11:56 | 39.01817 | 116.64913 | 24608 ft | 439 kts | 186° |
| 2026-05-06 11:57 | 38.98762 | 116.65041 | 24931 ft | 440 kts | 186° |
| 2026-05-06 11:57 | 38.95698 | 116.65169 | 25251 ft | 441 kts | 186° |
| 2026-05-06 11:57 | 38.92629 | 116.65300 | 25563 ft | 442 kts | 186° |
| 2026-05-06 11:57 | 38.89552 | 116.65432 | 25867 ft | 442 kts | 186° |
| 2026-05-06 11:58 | 38.86475 | 116.65564 | 26145 ft | 443 kts | 186° |
| 2026-05-06 11:58 | 38.83386 | 116.65693 | 26422 ft | 444 kts | 186° |
| 2026-05-06 11:58 | 38.80293 | 116.65818 | 26686 ft | 445 kts | 186° |
| 2026-05-06 11:58 | 38.77236 | 116.65940 | 26936 ft | 446 kts | 187° |
| 2026-05-06 11:59 | 38.74130 | 116.66068 | 27181 ft | 447 kts | 186° |
| 2026-05-06 11:59 | 38.71024 | 116.66201 | 27469 ft | 446 kts | 187° |
| 2026-05-06 11:59 | 38.67924 | 116.66338 | 27818 ft | 444 kts | 187° |
| 2026-05-06 11:59 | 38.64842 | 116.66469 | 28158 ft | 442 kts | 188° |
| 2026-05-06 12:00 | 38.61815 | 116.66277 | 28506 ft | 433 kts | 194° |
| 2026-05-06 12:00 | 38.58823 | 116.65927 | 28854 ft | 431 kts | 194° |
| 2026-05-06 12:00 | 38.55841 | 116.65577 | 29215 ft | 429 kts | 194° |
| 2026-05-06 12:00 | 38.52872 | 116.65231 | 29577 ft | 427 kts | 194° |
| 2026-05-06 12:01 | 38.49915 | 116.64889 | 29940 ft | 426 kts | 194° |
| 2026-05-06 12:01 | 38.46970 | 116.64549 | 30240 ft | 424 kts | 194° |
| 2026-05-06 12:01 | 38.44114 | 116.64217 | 30512 ft | 424 kts | 194° |
| 2026-05-06 12:01 | 38.41179 | 116.63878 | 30766 ft | 424 kts | 194° |
| 2026-05-06 12:02 | 38.38241 | 116.63542 | 31020 ft | 424 kts | 194° |
| 2026-05-06 12:02 | 38.35304 | 116.63208 | 31268 ft | 424 kts | 194° |
| 2026-05-06 12:02 | 38.32366 | 116.62878 | 31529 ft | 425 kts | 193° |
| 2026-05-06 12:02 | 38.29375 | 116.62876 | 31765 ft | 436 kts | 184° |
| 2026-05-06 12:03 | 38.26340 | 116.63522 | 32347 ft | 449 kts | 171° |
| 2026-05-06 12:03 | 38.23336 | 116.64637 | 32506 ft | 452 kts | 163° |
| 2026-05-06 12:03 | 38.20300 | 116.65783 | 32619 ft | 458 kts | 163° |
| 2026-05-06 12:03 | 38.17220 | 116.66934 | 32749 ft | 464 kts | 163° |
| 2026-05-06 12:04 | 38.14105 | 116.68090 | 32876 ft | 470 kts | 163° |
| 2026-05-06 12:04 | 38.10949 | 116.69257 | 33003 ft | 475 kts | 163° |
| 2026-05-06 12:04 | 38.07764 | 116.70446 | 33130 ft | 479 kts | 163° |
| 2026-05-06 12:04 | 38.04552 | 116.71670 | 33262 ft | 484 kts | 163° |
| 2026-05-06 12:05 | 38.01320 | 116.72915 | 33381 ft | 487 kts | 163° |
| 2026-05-06 12:05 | 37.98071 | 116.74170 | 33549 ft | 489 kts | 163° |
| 2026-05-06 12:05 | 37.94811 | 116.75428 | 33774 ft | 490 kts | 163° |
| 2026-05-06 12:05 | 37.91550 | 116.76676 | 34026 ft | 490 kts | 163° |
| 2026-05-06 12:06 | 37.88287 | 116.77916 | 34281 ft | 489 kts | 163° |
| 2026-05-06 12:06 | 37.85027 | 116.79152 | 34537 ft | 489 kts | 163° |
| 2026-05-06 12:06 | 37.81771 | 116.80386 | 34788 ft | 488 kts | 163° |
| 2026-05-06 12:06 | 37.78523 | 116.81618 | 35028 ft | 488 kts | 163° |
| 2026-05-06 12:07 | 37.75315 | 116.82833 | 35263 ft | 487 kts | 163° |
| 2026-05-06 12:07 | 37.72066 | 116.84058 | 35475 ft | 487 kts | 163° |
| 2026-05-06 12:07 | 37.68821 | 116.85279 | 35691 ft | 486 kts | 163° |
| 2026-05-06 12:07 | 37.65581 | 116.86498 | 35897 ft | 486 kts | 163° |
| 2026-05-06 12:08 | 37.62328 | 116.87723 | 36033 ft | 489 kts | 163° |
| 2026-05-06 12:08 | 37.59061 | 116.88950 | 36159 ft | 492 kts | 163° |
| 2026-05-06 12:08 | 37.55774 | 116.90186 | 36285 ft | 494 kts | 163° |
| 2026-05-06 12:08 | 37.52472 | 116.91428 | 36411 ft | 496 kts | 163° |
| 2026-05-06 12:09 | 37.49158 | 116.92672 | 36528 ft | 498 kts | 163° |
| 2026-05-06 12:09 | 37.45828 | 116.93918 | 36662 ft | 500 kts | 163° |
| 2026-05-06 12:09 | 37.42489 | 116.95166 | 36787 ft | 502 kts | 163° |
| 2026-05-06 12:09 | 37.39142 | 116.96419 | 36907 ft | 503 kts | 163° |
| 2026-05-06 12:10 | 37.35783 | 116.97674 | 37064 ft | 504 kts | 163° |
| 2026-05-06 12:10 | 37.32412 | 116.98929 | 37112 ft | 507 kts | 163° |
| 2026-05-06 12:10 | 37.25681 | 117.01583 | 37106 ft | 513 kts | 160° |
| 2026-05-06 12:11 | 37.19174 | 117.04653 | 37106 ft | 514 kts | 158° |
| 2026-05-06 12:11 | 37.12526 | 117.07942 | 37107 ft | 514 kts | 158° |
| 2026-05-06 12:12 | 37.05833 | 117.11098 | 37107 ft | 514 kts | 159° |
| 2026-05-06 12:12 | 36.99123 | 117.14188 | 37108 ft | 514 kts | 159° |
| 2026-05-06 12:13 | 36.92411 | 117.17297 | 37114 ft | 514 kts | 159° |
| 2026-05-06 12:13 | 36.85685 | 117.20328 | 37108 ft | 514 kts | 165° |
| 2026-05-06 12:14 | 36.78641 | 117.21593 | 37111 ft | 511 kts | 182° |
| 2026-05-06 12:14 | 36.71534 | 117.21513 | 37108 ft | 511 kts | 182° |
| 2026-05-06 12:15 | 36.64417 | 117.21456 | 37111 ft | 511 kts | 182° |
| 2026-05-06 12:15 | 36.57361 | 117.22356 | 37104 ft | 513 kts | 160° |
| 2026-05-06 12:16 | 36.54176 | 117.24181 | 37089 ft | 510 kts | 144° |
| 2026-05-06 12:16 | 36.51429 | 117.26910 | 37082 ft | 503 kts | 129° |
| 2026-05-06 12:16 | 36.46990 | 117.33565 | 37082 ft | 501 kts | 124° |
| 2026-05-06 12:17 | 36.42586 | 117.40302 | 37091 ft | 502 kts | 124° |
| 2026-05-06 12:17 | 36.38171 | 117.47030 | 37096 ft | 503 kts | 129° |
| 2026-05-06 12:18 | 36.33808 | 117.53685 | 36207 ft | 512 kts | 141° |
| 2026-05-06 12:18 | 36.31572 | 117.57085 | 35702 ft | 506 kts | 136° |
| 2026-05-06 12:18 | 36.29350 | 117.60452 | 35204 ft | 503 kts | 136° |
| 2026-05-06 12:19 | 36.27158 | 117.63762 | 34733 ft | 503 kts | 136° |
| 2026-05-06 12:19 | 36.24936 | 117.67111 | 34260 ft | 503 kts | 136° |
| 2026-05-06 12:19 | 36.22706 | 117.70464 | 33790 ft | 505 kts | 136° |
| 2026-05-06 12:19 | 36.20461 | 117.73835 | 33337 ft | 512 kts | 136° |
| 2026-05-06 12:20 | 36.18180 | 117.77257 | 32892 ft | 518 kts | 135° |
| 2026-05-06 12:20 | 36.15883 | 117.80709 | 32439 ft | 521 kts | 135° |
| 2026-05-06 12:20 | 36.13579 | 117.84179 | 31996 ft | 523 kts | 135° |
| 2026-05-06 12:20 | 36.11265 | 117.87659 | 31557 ft | 524 kts | 135° |
| 2026-05-06 12:21 | 36.08946 | 117.91142 | 31130 ft | 525 kts | 135° |
| 2026-05-06 12:21 | 36.06621 | 117.94624 | 30705 ft | 526 kts | 134° |
| 2026-05-06 12:21 | 36.04291 | 117.98110 | 30287 ft | 526 kts | 134° |
| 2026-05-06 12:21 | 36.01954 | 118.01601 | 29869 ft | 527 kts | 134° |
| 2026-05-06 12:22 | 35.99647 | 118.05045 | 29391 ft | 528 kts | 134° |
| 2026-05-06 12:22 | 35.97309 | 118.08536 | 28897 ft | 528 kts | 134° |
| 2026-05-06 12:22 | 35.94960 | 118.12039 | 28438 ft | 531 kts | 134° |
| 2026-05-06 12:22 | 35.92604 | 118.15554 | 27971 ft | 532 kts | 134° |
| 2026-05-06 12:23 | 35.90251 | 118.19077 | 27510 ft | 532 kts | 134° |
| 2026-05-06 12:23 | 35.87898 | 118.22588 | 27159 ft | 531 kts | 134° |
| 2026-05-06 12:23 | 35.85540 | 118.26090 | 27192 ft | 530 kts | 134° |
| 2026-05-06 12:23 | 35.83187 | 118.29572 | 27204 ft | 527 kts | 134° |
| 2026-05-06 12:24 | 35.80842 | 118.33036 | 26959 ft | 526 kts | 134° |
| 2026-05-06 12:24 | 35.78502 | 118.36494 | 26698 ft | 525 kts | 134° |
| 2026-05-06 12:24 | 35.76162 | 118.39953 | 26518 ft | 526 kts | 134° |
| 2026-05-06 12:24 | 35.73823 | 118.43405 | 26082 ft | 525 kts | 134° |
| 2026-05-06 12:25 | 35.71482 | 118.46856 | 25659 ft | 525 kts | 135° |
| 2026-05-06 12:25 | 35.69144 | 118.50300 | 25227 ft | 524 kts | 135° |
| 2026-05-06 12:25 | 35.66804 | 118.53744 | 24799 ft | 524 kts | 135° |
| 2026-05-06 12:25 | 35.64468 | 118.57179 | 24370 ft | 524 kts | 135° |
| 2026-05-06 12:26 | 35.62130 | 118.60613 | 23942 ft | 523 kts | 135° |
| 2026-05-06 12:26 | 35.59793 | 118.64041 | 23511 ft | 522 kts | 135° |
| 2026-05-06 12:26 | 35.57474 | 118.67444 | 23017 ft | 514 kts | 135° |
| 2026-05-06 12:26 | 35.55215 | 118.70767 | 22524 ft | 502 kts | 135° |
| 2026-05-06 12:27 | 35.52993 | 118.74031 | 22066 ft | 495 kts | 135° |
| 2026-05-06 12:27 | 35.50792 | 118.77255 | 21621 ft | 490 kts | 135° |
| 2026-05-06 12:27 | 35.48611 | 118.80435 | 21191 ft | 486 kts | 135° |
| 2026-05-06 12:27 | 35.46437 | 118.83599 | 20772 ft | 482 kts | 135° |
| 2026-05-06 12:28 | 35.44283 | 118.86733 | 20355 ft | 478 kts | 135° |
| 2026-05-06 12:28 | 35.42149 | 118.89837 | 19957 ft | 475 kts | 135° |
| 2026-05-06 12:28 | 35.40056 | 118.92877 | 19561 ft | 471 kts | 134° |
| 2026-05-06 12:28 | 35.37950 | 118.95933 | 19172 ft | 468 kts | 134° |
| 2026-05-06 12:29 | 35.35933 | 118.98858 | 18812 ft | 464 kts | 134° |
| 2026-05-06 12:29 | 35.33858 | 119.01870 | 18439 ft | 461 kts | 134° |
| 2026-05-06 12:29 | 35.31801 | 119.04859 | 18059 ft | 457 kts | 134° |
| 2026-05-06 12:29 | 35.29757 | 119.07823 | 17635 ft | 454 kts | 134° |
| 2026-05-06 12:30 | 35.27795 | 119.10665 | 17236 ft | 451 kts | 134° |
| 2026-05-06 12:30 | 35.25774 | 119.13590 | 16827 ft | 449 kts | 133° |
| 2026-05-06 12:30 | 35.23764 | 119.16496 | 16430 ft | 446 kts | 133° |
| 2026-05-06 12:30 | 35.21766 | 119.19380 | 16041 ft | 443 kts | 133° |
| 2026-05-06 12:31 | 35.19782 | 119.22243 | 15660 ft | 440 kts | 133° |
| 2026-05-06 12:31 | 35.17807 | 119.25088 | 15281 ft | 438 kts | 133° |
| 2026-05-06 12:31 | 35.15840 | 119.27919 | 14910 ft | 435 kts | 133° |
| 2026-05-06 12:31 | 35.13886 | 119.30728 | 14549 ft | 433 kts | 133° |
| 2026-05-06 12:32 | 35.11931 | 119.33516 | 14186 ft | 430 kts | 134° |
| 2026-05-06 12:32 | 35.09674 | 119.35853 | 13843 ft | 423 kts | 150° |
| 2026-05-06 12:32 | 35.07030 | 119.37337 | 13320 ft | 415 kts | 166° |
| 2026-05-06 12:32 | 35.04220 | 119.37853 | 12702 ft | 404 kts | 182° |
| 2026-05-06 12:33 | 35.01541 | 119.37606 | 12140 ft | 397 kts | 188° |
| 2026-05-06 12:33 | 34.98815 | 119.37270 | 11572 ft | 391 kts | 187° |
| 2026-05-06 12:33 | 34.96132 | 119.36949 | 11023 ft | 384 kts | 187° |
| 2026-05-06 12:33 | 34.93491 | 119.36640 | 10490 ft | 378 kts | 187° |
| 2026-05-06 12:34 | 34.90896 | 119.36341 | 9979 ft | 372 kts | 187° |
| 2026-05-06 12:34 | 34.88339 | 119.36050 | 9443 ft | 366 kts | 187° |
| 2026-05-06 12:34 | 34.85824 | 119.35770 | 8889 ft | 360 kts | 187° |
| 2026-05-06 12:34 | 34.83383 | 119.35503 | 8386 ft | 354 kts | 187° |
| 2026-05-06 12:35 | 34.80951 | 119.35238 | 7880 ft | 348 kts | 187° |
| 2026-05-06 12:35 | 34.78565 | 119.34977 | 7388 ft | 341 kts | 187° |
| 2026-05-06 12:35 | 34.76223 | 119.34717 | 6917 ft | 335 kts | 187° |
| 2026-05-06 12:35 | 34.73921 | 119.34458 | 6463 ft | 329 kts | 187° |
| 2026-05-06 12:36 | 34.71697 | 119.34207 | 5995 ft | 311 kts | 187° |
| 2026-05-06 12:36 | 34.69604 | 119.33972 | 5550 ft | 293 kts | 187° |
| 2026-05-06 12:36 | 34.67650 | 119.33659 | 5140 ft | 274 kts | 198° |
| 2026-05-06 12:36 | 34.65967 | 119.32767 | 4759 ft | 256 kts | 208° |
| 2026-05-06 12:37 | 34.64416 | 119.31824 | 4409 ft | 243 kts | 207° |
| 2026-05-06 12:37 | 34.62943 | 119.30932 | 4045 ft | 232 kts | 207° |
| 2026-05-06 12:37 | 34.61510 | 119.30064 | 3554 ft | 228 kts | 207° |
| 2026-05-06 12:37 | 34.60122 | 119.29224 | 3320 ft | 214 kts | 207° |
| 2026-05-06 12:38 | 34.58857 | 119.28459 | 3303 ft | 191 kts | 207° |
| 2026-05-06 12:38 | 34.57709 | 119.27764 | 3253 ft | 189 kts | 207° |
| 2026-05-06 12:38 | 34.56536 | 119.27054 | 3003 ft | 182 kts | 207° |
| 2026-05-06 12:38 | 34.55444 | 119.26393 | 2778 ft | 169 kts | 207° |
| 2026-05-06 12:39 | 34.54445 | 119.25789 | 2589 ft | 150 kts | 207° |
| 2026-05-06 12:39 | 34.53565 | 119.25256 | 2406 ft | 134 kts | 206° |
| 2026-05-06 12:39 | 34.52752 | 119.24764 | 2230 ft | 128 kts | 206° |
| 2026-05-06 12:39 | 34.51966 | 119.24289 | 2064 ft | 125 kts | 206° |
| 2026-05-06 12:40 | 34.51200 | 119.23826 | 1906 ft | 124 kts | 206° |
| 2026-05-06 12:40 | 34.50432 | 119.23362 | 1750 ft | 123 kts | 205° |
| 2026-05-06 12:40 | 34.49670 | 119.22901 | 1588 ft | 122 kts | 205° |
| 2026-05-06 12:40 | 34.48906 | 119.22440 | 1432 ft | 123 kts | 205° |
| 2026-05-06 12:41 | 34.48139 | 119.21976 | 1268 ft | 124 kts | 205° |
| 2026-05-06 12:41 | 34.47361 | 119.21506 | 1108 ft | 126 kts | 205° |
| 2026-05-06 12:41 | 34.46571 | 119.21029 | 937 ft | 128 kts | 205° |
| 2026-05-06 12:41 | 34.45767 | 119.20544 | 779 ft | 130 kts | 205° |
| 2026-05-06 12:42 | 34.44948 | 119.20049 | 621 ft | 133 kts | 205° |
| 2026-05-06 12:42 | 34.44118 | 119.19549 | 433 ft | 134 kts | 206° |
| 2026-05-06 12:42 | 34.43278 | 119.19042 | 234 ft | 135 kts | 205° |
| 2026-05-06 12:42 | 34.42438 | 119.18532 | 55 ft | 134 kts | 205° |
| 2026-05-06 12:43 | 34.41684 | 119.18085 | 25 ft | 87 kts | 207° |
| 2026-05-06 12:43 | 34.41374 | 119.17898 | 27 ft | 32 kts | 206° |
| 2026-05-06 12:43 | 34.41182 | 119.17784 | 30 ft | 30 kts | 206° |
| 2026-05-06 12:43 | 34.40997 | 119.17677 | 31 ft | 26 kts | 199° |
| 2026-05-06 12:44 | 34.40927 | 119.17776 | 33 ft | 15 kts | 106° |
| 2026-05-06 12:44 | 34.40970 | 119.17857 | 30 ft | 11 kts | 31° |
| 2026-05-06 12:44 | 34.41033 | 119.17910 | 30 ft | 12 kts | 54° |
| 2026-05-06 12:44 | 34.41000 | 119.17988 | 27 ft | 13 kts | 120° |
| 2026-05-06 12:45 | 34.40955 | 119.18118 | 23 ft | 19 kts | 111° |
| 2026-05-06 12:45 | 34.41012 | 119.18194 | 21 ft | 11 kts | 26° |
| 2026-05-06 12:45 | 34.41009 | 119.18260 | 20 ft | 2 kts | 115° |
| 2026-05-06 12:46 | 34.41007 | 119.18265 | 19 ft | 0 kts | 115° |